10:01
Airports
History
Links
Donate
Help keep this website running!
PayPal
Bitcoin
Information on this page is community maintained and may be outdated or inaccurate and is intended for reference only or PC simulator navigating!
Always use approved charts for navigating.
LIPX
VILLAFRANCA
VILLAFRANCA (LIPX)
Villafranca di Verona, Veneto, Italy (37069)
(C)
Lat/Lng:45° 23' 48.99" N / 10° 53' 25.5" E
45.396942 / 10.890418
Elevation:239'ft 73mMSL
ID / ICAO:LIPX
Runways:1
Longest:(04-22) 3,073.8m 10,085ft Asphalt
Controlled:Yes
Distance To
Airport ID:
Airport Radio Frequencies
Ground: 121.75
Tower: 123.25, 118.65, 122.1
Approach: 118.55, 124.25, 124.45
Nearby VORs <50NM
Nearby NDBs
METARUpdated 04-23-17 09:50 GMT
Altimeter: 30.06
Visibility: 6.2 statute miles
Wind: 5 knots (080°)
Temp: 16°c 61°f
Humidity: 44.7%

METAR: LIPX 230950Z 08005KT 030V140 9999 SCT040 16/04 Q1018

(Powered by phpweather)
Runway 04 / 22
Dimensions:3073.8 x 45.1m 10085' x 148'ft
Surface:Asphalt
Edge Lights:High intensity
Runway 04 [A]Runway 22 [B]
Heading:045°TH 225°TH
Lat:
Lng:
45° 23' 14.35"N
10° 52' 34.78"E
45° 24' 23.63"N
10° 54' 16.23"E
ALS:ALSF-IISALS
TDZ:Yes
Google Map
Nearby Airports
(U) VERONA BOSCOMANTICO 5.5 NM
LIPN NNE 19°
4 Mantova 18.7 NM
LIDM SSW 194°
4 Legnago 26.8 NM
LIDL SE 133°
(C) Montichiari 27.2 NM
LIPO W 274°
(C) GHEDI 30.3 NM
LIPL (WX) W 274°
(X) [X] VICENZA 33.3 NM
LIPT (WX) ENE 68°
(C) Thiene 35.1 NM
LIDH NE 56°
VFR Chart
Flight Planning at SkyVector.com